METAR

METAR LDZA 270630Z 03006KT 010V070 CAVOK 13/08 Q1020 NOSIG =
METAR LDSP 270630Z 11004KT 090V150 CAVOK 21/12 Q1013 NOSIG=
METAR LDDU 270630Z 15005KT 090V200 CAVOK 21/11 Q1014 NOSIG =
METAR LDZD 270630Z 08011KT 030V120 CAVOK 19/08 Q1013 NOSIG =
METAR LDPL 270630Z 07013KT CAVOK 18/07 Q1014 NOSIG=
METAR LDOS 270630Z VRB04KT CAVOK 13/07 Q1020=
METAR LDRI 270630Z 05008KT 350V100 CAVOK 18/04 Q1016=
METAR LDLO 270600Z 02014KT CAVOK 17/09 Q1014=

TAF

TAF LDZA 270525Z 2706/2806 VRB02KT CAVOK
                 TX22/2713Z TN10/2804Z=
TAF LDSP 270525Z 2706/2806 10006KT CAVOK
                 TX26/2714Z TN15/2803Z
           BECMG 2712/2714 23008KT
           BECMG 2715/2717 VRB02KT=
TAF LDDU 270525Z 2706/2806 17007KT CAVOK
                 TX24/2714Z TN17/2803Z
    PROB30 TEMPO 2706/2707 02010KT
           BECMG 2713/2715 29008KT
           BECMG 2717/2719 02009KT=
TAF LDZD 270525Z 2706/2806 07008KT CAVOK
                 TX27/2714Z TN11/2804Z
           BECMG 2710/2712 24008KT
           BECMG 2713/2715 28008KT
           BECMG 2715/2717 VRB02KT=
TAF LDPL 270525Z 2706/2806 07020KT CAVOK
                 TX23/2713Z TN14/2804Z
           BECMG 2709/2711 07010KT
           BECMG 2714/2716 VRB02KT=
TAF LDOS 270525Z 2706/2806 35008KT CAVOK
                 TX23/2713Z TN11/2803Z
           BECMG 2710/2712 11006KT=
TAF LDRI 270525Z 2706/2806 06010KT CAVOK
                 TX25/2712Z TN14/2804Z
           BECMG 2707/2709 VRB02KT=
TAF LDLO 270608Z 2706/2806 02012KT CAVOK
                 TX21/2712Z TN17/2706Z
           BECMG 2708/2710 VRB02KT=

SIGMET

AIRMET

LDZO AIRMET 3 VALID 270500/270800 LDZA-
LDZO ZAGREB FIR MOD TURB FCST WI N4536 E01431 - N4406 E01619 - N4412
E01454 - N4534 E01323 - N4536 E01431 SFC/6000FT STNR NC=

Remark

Ukoliko se brzina i smjer vjetra ne mogu odrediti zbog privremenog kvara sustava/indikatora,
informacija o vjetru u METAR izvješću bit će prikazana kao "/////KT".

 

Disclaimer

 

In case of temporary system/sensor failure, wind speed and direction data will be represented as "/////KT" in METAR report.

 

         

      Politika MET podataka